Time;durP1;ratioP1;P1;durP2;ratioP2;P2;SDS_P1;SDS_P2;PMS_P1;PMS_P2;Temp;Humidity;BMP_temperature;BMP_pressure;BME280_temperature;BME280_humidity;BME280_pressure;Samples;Min_cycle;Max_cycle;Signal;HPM_P1;HPM_P2
2021/07/29 00:00:35;;;;;;;21.85;19.70;;;24.00;77.80;;;;;;5073175;28;20020;-63
2021/07/29 00:03:01;;;;;;;22.42;19.95;;;24.00;78.00;;;;;;5073006;28;20411;-63
2021/07/29 00:05:28;;;;;;;22.48;20.05;;;24.00;78.10;;;;;;5073081;28;20032;-63
2021/07/29 00:07:54;;;;;;;24.15;20.33;;;24.00;78.20;;;;;;5072813;28;20020;-62
2021/07/29 00:10:20;;;;;;;21.27;19.05;;;24.00;78.40;;;;;;5073097;28;20099;-62
2021/07/29 00:12:46;;;;;;;21.48;19.20;;;24.00;78.10;;;;;;5073033;28;20020;-62
2021/07/29 00:15:15;;;;;;;21.45;19.13;;;23.90;78.10;;;;;;5072934;28;20103;-63
2021/07/29 00:20:13;;;;;;;;;;;23.80;78.20;;;;;;5093829;28;20055;-62
2021/07/29 00:22:40;;;;;;;21.15;18.92;;;23.80;78.50;;;;;;5093273;28;19910;-62
2021/07/29 00:25:07;;;;;;;24.20;20.95;;;23.80;78.30;;;;;;5093239;28;20168;-62
2021/07/29 00:27:36;;;;;;;20.95;18.60;;;23.80;78.70;;;;;;5093224;28;20047;-62
2021/07/29 00:30:04;;;;;;;19.35;17.25;;;23.70;78.50;;;;;;5091561;28;20394;-61
2021/07/29 00:32:29;;;;;;;20.83;18.63;;;23.60;78.60;;;;;;5072894;28;20021;-62
2021/07/29 00:34:55;;;;;;;20.27;17.92;;;23.60;78.70;;;;;;5073014;28;20074;-62
2021/07/29 00:37:20;;;;;;;19.60;17.52;;;23.50;78.70;;;;;;5072943;28;20028;-61
2021/07/29 00:39:46;;;;;;;20.75;18.67;;;23.50;78.80;;;;;;5072800;28;20467;-62
2021/07/29 00:42:12;;;;;;;20.52;18.33;;;23.50;79.10;;;;;;5072498;28;20040;-62
2021/07/29 00:44:38;;;;;;;20.33;18.20;;;23.50;78.90;;;;;;5072493;28;20024;-62
2021/07/29 00:47:05;;;;;;;21.67;19.27;;;23.50;78.90;;;;;;5072717;28;20468;-62
2021/07/29 00:49:31;;;;;;;21.60;19.50;;;23.50;79.00;;;;;;5072634;28;20095;-61
2021/07/29 00:51:57;;;;;;;22.40;18.15;;;23.50;79.10;;;;;;5072457;28;20420;-62
2021/07/29 00:54:27;;;;;;;22.17;19.10;;;23.50;79.00;;;;;;5071438;28;20016;-62
2021/07/29 00:56:53;;;;;;;20.80;18.70;;;23.50;79.20;;;;;;5072496;28;20126;-62
2021/07/29 00:59:20;;;;;;;20.02;17.67;;;23.40;79.20;;;;;;5072464;28;20170;-62
2021/07/29 01:01:45;;;;;;;20.90;18.35;;;23.40;79.20;;;;;;5072033;28;20029;-62
2021/07/29 01:04:11;;;;;;;24.42;18.83;;;23.30;79.40;;;;;;5072268;28;20056;-61
2021/07/29 01:06:37;;;;;;;23.08;18.75;;;23.30;79.50;;;;;;5072223;28;20024;-62
2021/07/29 01:09:10;;;;;;;21.50;19.20;;;23.30;80.30;;;;;;5072340;28;20028;-61
2021/07/29 01:11:36;;;;;;;22.65;19.70;;;23.30;79.70;;;;;;5072309;28;20368;-61
2021/07/29 01:14:02;;;;;;;20.92;17.83;;;23.30;79.70;;;;;;5071999;28;20035;-62
2021/07/29 01:16:27;;;;;;;19.85;17.75;;;23.30;79.70;;;;;;5072412;28;20029;-62
2021/07/29 01:18:54;;;;;;;19.40;17.30;;;23.20;79.70;;;;;;5071490;28;20387;-62
2021/07/29 01:21:19;;;;;;;22.98;19.02;;;23.20;79.60;;;;;;5072044;28;20028;-63
2021/07/29 01:23:45;;;;;;;20.80;18.52;;;23.20;79.70;;;;;;5071981;28;20376;-62
2021/07/29 01:26:10;;;;;;;20.58;18.48;;;23.20;79.80;;;;;;5071976;28;20029;-62
2021/07/29 01:28:36;;;;;;;20.48;18.27;;;23.10;79.90;;;;;;5071905;28;20422;-62
2021/07/29 01:31:02;;;;;;;20.05;17.95;;;23.10;80.10;;;;;;5071748;28;20486;-62
2021/07/29 01:33:28;;;;;;;22.90;19.95;;;23.10;80.20;;;;;;5072016;28;20079;-62
2021/07/29 01:35:53;;;;;;;22.52;19.25;;;23.10;80.60;;;;;;5072008;28;20028;-62
2021/07/29 01:38:19;;;;;;;19.23;17.02;;;23.10;80.70;;;;;;5070636;28;20020;-62
2021/07/29 01:40:44;;;;;;;20.30;17.80;;;23.10;80.50;;;;;;5071690;28;20422;-63
2021/07/29 01:43:10;;;;;;;22.27;19.88;;;23.00;80.70;;;;;;5071675;28;20512;-63
2021/07/29 01:45:35;;;;;;;20.27;18.13;;;23.10;80.90;;;;;;5071692;28;20029;-63
2021/07/29 01:48:01;;;;;;;20.63;18.42;;;23.00;80.90;;;;;;5071618;28;20016;-62
2021/07/29 01:50:27;;;;;;;23.30;20.80;;;23.00;80.90;;;;;;5071852;28;20387;-62
2021/07/29 01:52:52;;;;;;;24.15;20.80;;;23.00;81.40;;;;;;5071552;28;20100;-62
2021/07/29 01:55:18;;;;;;;25.98;23.08;;;23.00;81.70;;;;;;5071528;28;20174;-62
2021/07/29 01:57:44;;;;;;;25.38;22.67;;;22.90;82.00;;;;;;5071633;28;20029;-62
2021/07/29 02:00:10;;;;;;;23.63;21.05;;;22.80;82.00;;;;;;5071488;28;20059;-61
2021/07/29 02:02:36;;;;;;;23.45;20.95;;;22.80;82.10;;;;;;5071315;28;20035;-62
2021/07/29 02:05:02;;;;;;;22.23;19.92;;;22.80;82.30;;;;;;5071379;28;20025;-62
2021/07/29 02:07:27;;;;;;;26.08;20.95;;;22.70;82.50;;;;;;5071465;28;20021;-63
2021/07/29 02:09:53;;;;;;;21.20;18.85;;;22.70;82.60;;;;;;5071373;28;20025;-62
2021/07/29 02:12:19;;;;;;;20.58;18.45;;;22.60;82.50;;;;;;5071425;28;20071;-63
2021/07/29 02:14:44;;;;;;;22.92;18.65;;;22.60;82.40;;;;;;5071598;28;20016;-61
2021/07/29 02:17:10;;;;;;;20.30;18.20;;;22.60;82.60;;;;;;5071844;28;20039;-61
2021/07/29 02:19:35;;;;;;;21.92;19.58;;;22.50;82.60;;;;;;5071251;28;20036;-61
2021/07/29 02:22:01;;;;;;;21.95;19.25;;;22.50;82.60;;;;;;5071180;28;20025;-61
2021/07/29 02:24:27;;;;;;;24.33;21.73;;;22.50;82.90;;;;;;5071249;28;20194;-62
2021/07/29 02:26:52;;;;;;;24.50;21.90;;;22.50;83.10;;;;;;5071363;28;20063;-61
2021/07/29 02:29:18;;;;;;;25.75;22.38;;;22.60;83.40;;;;;;5071273;28;20459;-61
2021/07/29 02:31:44;;;;;;;25.67;22.77;;;22.60;83.50;;;;;;5072511;28;20522;-62
2021/07/29 02:34:09;;;;;;;25.08;22.52;;;22.50;83.50;;;;;;5075512;28;20023;-62
2021/07/29 02:36:35;;;;;;;23.77;21.27;;;22.50;83.70;;;;;;5075155;28;20032;-63
2021/07/29 02:39:01;;;;;;;23.77;21.15;;;22.50;84.20;;;;;;5075038;28;20051;-62
2021/07/29 02:41:26;;;;;;;23.38;20.88;;;22.40;83.60;;;;;;5074986;28;20093;-62
2021/07/29 02:43:52;;;;;;;26.83;23.15;;;22.40;83.70;;;;;;5075056;28;20024;-62
2021/07/29 02:46:18;;;;;;;23.75;21.25;;;22.40;83.80;;;;;;5075013;28;20029;-62
2021/07/29 02:48:43;;;;;;;23.65;21.25;;;22.40;83.90;;;;;;5074996;28;20025;-62
2021/07/29 02:51:09;;;;;;;22.85;19.80;;;22.40;84.10;;;;;;5075068;28;20013;-61
2021/07/29 02:53:35;;;;;;;21.35;19.08;;;22.30;84.00;;;;;;5074839;28;20158;-62
2021/07/29 02:56:02;;;;;;;22.02;19.73;;;22.40;84.10;;;;;;5056711;28;20119;-61
2021/07/29 02:58:27;;;;;;;20.60;18.40;;;22.40;84.00;;;;;;5074886;28;20129;-61
2021/07/29 03:00:54;;;;;;;20.40;18.17;;;22.50;83.60;;;;;;5074627;28;20105;-62
2021/07/29 03:03:20;;;;;;;23.80;21.08;;;22.50;83.40;;;;;;5074485;28;20102;-62
2021/07/29 03:05:45;;;;;;;23.42;21.00;;;22.60;83.50;;;;;;5074362;28;20024;-62
2021/07/29 03:08:11;;;;;;;22.20;19.90;;;22.60;83.40;;;;;;5074464;28;20103;-62
2021/07/29 03:10:37;;;;;;;24.10;20.85;;;22.60;83.30;;;;;;5074547;28;20037;-63
2021/07/29 03:13:04;;;;;;;21.65;19.15;;;22.60;83.30;;;;;;5074691;28;20025;-63
2021/07/29 03:15:30;;;;;;;22.23;20.02;;;22.60;83.20;;;;;;5074452;28;20104;-63
2021/07/29 03:17:56;;;;;;;21.25;19.02;;;22.70;83.10;;;;;;5074104;28;20032;-61
2021/07/29 03:20:23;;;;;;;21.65;19.27;;;22.70;82.90;;;;;;5074355;28;20120;-63
2021/07/29 03:22:48;;;;;;;24.65;20.10;;;22.80;82.90;;;;;;5074038;28;20151;-63
2021/07/29 03:25:14;;;;;;;21.67;19.33;;;22.80;82.70;;;;;;5073153;28;20111;-62
2021/07/29 03:27:40;;;;;;;21.30;19.02;;;22.90;82.70;;;;;;5074138;28;20039;-62
2021/07/29 03:30:06;;;;;;;21.60;18.88;;;22.90;82.40;;;;;;5074079;28;20017;-62
2021/07/29 03:32:32;;;;;;;21.67;19.38;;;23.00;82.20;;;;;;5074090;28;20464;-63
2021/07/29 03:34:57;;;;;;;21.45;18.83;;;23.00;82.00;;;;;;5074155;28;20028;-62
2021/07/29 03:37:23;;;;;;;21.63;19.23;;;23.10;81.80;;;;;;5073881;28;20020;-63
2021/07/29 03:39:49;;;;;;;21.63;19.42;;;23.20;81.70;;;;;;5074030;28;20028;-63
2021/07/29 03:42:14;;;;;;;21.83;19.52;;;23.20;81.40;;;;;;5073692;28;20033;-63
2021/07/29 03:44:40;;;;;;;21.27;19.08;;;23.30;81.20;;;;;;5073763;28;20477;-62
2021/07/29 03:47:06;;;;;;;20.33;18.15;;;23.30;81.10;;;;;;5073665;28;20024;-62
2021/07/29 03:49:35;;;;;;;20.75;18.65;;;23.30;80.90;;;;;;5073689;28;20095;-62
2021/07/29 03:52:01;;;;;;;20.23;17.92;;;23.40;80.70;;;;;;5073442;28;20109;-63
2021/07/29 03:54:27;;;;;;;19.88;17.67;;;23.50;80.50;;;;;;5073541;28;20104;-63
2021/07/29 03:56:53;;;;;;;20.25;18.08;;;23.50;80.40;;;;;;5073600;28;20103;-63
2021/07/29 03:59:18;;;;;;;22.60;19.67;;;23.60;80.30;;;;;;5073624;28;20475;-63
2021/07/29 04:01:44;;;;;;;19.30;17.27;;;23.70;80.20;;;;;;5073340;28;20104;-62
2021/07/29 04:04:09;;;;;;;17.85;16.05;;;23.80;79.80;;;;;;5073178;28;20045;-63
2021/07/29 04:06:35;;;;;;;16.45;14.38;;;23.90;79.60;;;;;;5073159;28;20094;-62
2021/07/29 04:09:01;;;;;;;17.02;15.10;;;23.90;79.30;;;;;;5072657;28;20099;-63
2021/07/29 04:11:26;;;;;;;18.38;16.23;;;24.00;79.10;;;;;;5052943;28;20310;-63
2021/07/29 04:13:52;;;;;;;16.20;14.43;;;24.10;78.80;;;;;;5062785;28;20028;-63
2021/07/29 04:16:17;;;;;;;19.73;17.38;;;24.20;78.70;;;;;;5057191;28;20029;-61
2021/07/29 04:18:43;;;;;;;18.00;16.00;;;24.30;78.30;;;;;;5066235;28;20032;-62
2021/07/29 04:21:16;;;;;;;16.42;14.68;;;24.30;78.20;;;;;;5072223;28;20116;-62
2021/07/29 04:23:42;;;;;;;14.05;12.35;;;24.40;78.00;;;;;;5060362;28;20035;-62
2021/07/29 04:26:08;;;;;;;14.98;12.77;;;24.50;77.80;;;;;;5054563;28;20112;-62
2021/07/29 04:28:33;;;;;;;13.65;12.10;;;24.60;77.40;;;;;;5057004;28;20452;-63
2021/07/29 04:30:59;;;;;;;12.88;11.52;;;24.70;77.00;;;;;;5072591;28;20025;-61
2021/07/29 04:33:24;;;;;;;12.75;11.35;;;24.80;76.80;;;;;;5065430;28;20025;-61
2021/07/29 04:35:50;;;;;;;14.25;11.75;;;24.90;76.50;;;;;;5057375;28;20040;-62
2021/07/29 04:38:16;;;;;;;13.07;11.60;;;25.00;76.30;;;;;;5061686;28;20025;-62
2021/07/29 04:40:41;;;;;;;13.38;11.93;;;25.10;76.00;;;;;;5052722;28;20033;-63
2021/07/29 04:43:07;;;;;;;14.52;11.52;;;25.20;75.70;;;;;;5069338;28;20387;-63
2021/07/29 04:45:32;;;;;;;13.77;11.20;;;25.30;75.40;;;;;;5063173;28;20103;-62
2021/07/29 04:47:58;;;;;;;13.52;11.23;;;25.50;75.20;;;;;;5055915;28;20021;-62
2021/07/29 04:50:24;;;;;;;12.10;10.57;;;25.50;74.80;;;;;;5052487;28;20468;-62
2021/07/29 04:52:50;;;;;;;12.32;10.70;;;25.60;74.60;;;;;;5058846;28;20036;-62
2021/07/29 04:55:16;;;;;;;13.07;11.68;;;25.70;74.40;;;;;;5068345;28;20509;-63
2021/07/29 04:57:42;;;;;;;14.38;11.50;;;25.80;74.00;;;;;;5052117;28;20086;-62
2021/07/29 05:00:08;;;;;;;13.95;11.95;;;25.80;73.70;;;;;;5057399;28;20028;-62
2021/07/29 05:02:34;;;;;;;14.38;12.85;;;25.90;73.50;;;;;;5071860;28;20443;-63
2021/07/29 05:05:00;;;;;;;15.88;13.52;;;26.00;73.40;;;;;;5071659;28;20045;-62
2021/07/29 05:07:25;;;;;;;15.55;13.75;;;26.00;72.90;;;;;;5073142;28;20024;-62
2021/07/29 05:09:51;;;;;;;17.30;15.35;;;26.10;72.70;;;;;;5071680;28;20021;-62
2021/07/29 05:12:17;;;;;;;17.08;13.60;;;26.20;72.40;;;;;;5071765;28;20020;-62
2021/07/29 05:14:42;;;;;;;16.23;13.18;;;26.30;72.30;;;;;;5071988;28;20029;-62
2021/07/29 05:17:08;;;;;;;14.88;13.13;;;26.30;71.90;;;;;;5072075;28;20032;-63
2021/07/29 05:19:34;;;;;;;15.90;12.85;;;26.40;71.70;;;;;;5088348;28;20116;-63
2021/07/29 05:21:59;;;;;;;14.80;11.82;;;26.50;71.50;;;;;;5092302;28;20755;-62
2021/07/29 05:24:25;;;;;;;13.15;11.07;;;26.60;71.00;;;;;;5092149;28;20103;-64
2021/07/29 05:26:51;;;;;;;11.50;10.05;;;26.70;70.90;;;;;;5085223;28;20029;-62
2021/07/29 05:29:17;;;;;;;11.00;9.68;;;26.80;70.70;;;;;;5071192;28;20029;-63
2021/07/29 05:31:42;;;;;;;12.50;10.27;;;26.90;70.40;;;;;;5051683;28;20025;-63
2021/07/29 05:34:09;;;;;;;11.63;9.57;;;27.00;70.00;;;;;;5051858;28;20492;-63
2021/07/29 05:36:36;;;;;;;10.55;9.43;;;27.10;69.90;;;;;;5033709;28;20029;-62
2021/07/29 05:39:02;;;;;;;14.98;13.32;;;27.20;69.70;;;;;;5058275;28;20021;-63
2021/07/29 05:41:27;;;;;;;14.30;12.75;;;27.30;68.50;;;;;;5051337;28;20057;-62
2021/07/29 05:43:53;;;;;;;13.68;12.23;;;27.30;68.30;;;;;;5058517;28;20028;-63
2021/07/29 05:46:18;;;;;;;12.60;11.15;;;27.40;67.80;;;;;;5062937;28;20071;-61
2021/07/29 05:48:44;;;;;;;12.10;10.57;;;27.40;67.90;;;;;;5052799;28;20154;-62
2021/07/29 05:51:10;;;;;;;13.00;10.82;;;27.50;67.90;;;;;;5051729;28;20486;-64
2021/07/29 05:53:35;;;;;;;13.40;11.07;;;27.60;67.70;;;;;;5053290;28;20021;-63
2021/07/29 05:56:01;;;;;;;13.82;11.45;;;27.70;67.30;;;;;;5063753;28;20028;-62
2021/07/29 05:58:27;;;;;;;11.07;9.88;;;27.90;66.90;;;;;;5068204;28;20036;-63
2021/07/29 06:00:54;;;;;;;11.32;8.88;;;28.00;66.90;;;;;;5067999;28;20112;-62
2021/07/29 06:03:20;;;;;;;11.65;9.00;;;28.10;66.80;;;;;;5062271;28;20053;-62
2021/07/29 06:05:45;;;;;;;9.85;8.43;;;28.20;66.30;;;;;;5066147;28;20089;-62
2021/07/29 06:08:12;;;;;;;9.77;7.75;;;28.30;66.30;;;;;;5061039;28;20029;-63
2021/07/29 06:10:38;;;;;;;11.45;8.77;;;28.40;66.10;;;;;;5066960;28;20036;-62
2021/07/29 06:13:04;;;;;;;11.77;9.15;;;28.50;66.00;;;;;;5059463;28;20020;-63
2021/07/29 06:15:30;;;;;;;14.07;11.50;;;28.60;66.10;;;;;;5074838;28;20036;-64
2021/07/29 06:17:58;;;;;;;11.73;10.50;;;28.70;66.20;;;;;;5068502;28;20033;-62
2021/07/29 06:20:23;;;;;;;11.13;9.70;;;28.70;66.40;;;;;;5059243;28;20384;-64
2021/07/29 06:22:49;;;;;;;13.65;9.85;;;28.80;66.60;;;;;;5070931;28;20025;-63
2021/07/29 06:25:18;;;;;;;13.45;10.55;;;28.80;66.80;;;;;;5070469;28;20052;-63
2021/07/29 06:27:49;;;;;;;15.88;12.20;;;28.90;67.00;;;;;;5051032;28;20480;-63
2021/07/29 06:30:16;;;;;;;14.13;11.18;;;29.00;66.90;;;;;;5071318;28;20017;-63
2021/07/29 06:32:41;;;;;;;14.57;12.20;;;29.10;66.90;;;;;;5069688;28;20025;-63
2021/07/29 06:35:08;;;;;;;14.27;11.27;;;29.20;66.80;;;;;;5056318;28;20039;-62
2021/07/29 06:37:34;;;;;;;13.70;11.63;;;29.30;66.70;;;;;;5065553;28;20063;-65
2021/07/29 06:40:00;;;;;;;12.85;10.98;;;29.50;66.60;;;;;;5087963;28;20036;-63
2021/07/29 06:42:26;;;;;;;14.13;12.00;;;29.60;66.50;;;;;;5072076;28;20040;-66
2021/07/29 06:44:52;;;;;;;14.20;11.60;;;29.70;66.90;;;;;;5056658;28;20050;-69
2021/07/29 06:47:19;;;;;;;13.18;11.40;;;29.80;66.10;;;;;;5079515;28;20154;-63
2021/07/29 06:49:45;;;;;;;14.20;12.25;;;29.90;65.90;;;;;;5070318;28;20060;-64
2021/07/29 06:52:12;;;;;;;12.85;11.50;;;30.00;65.60;;;;;;5070105;28;20525;-64
2021/07/29 06:54:38;;;;;;;12.07;10.77;;;30.10;65.50;;;;;;5067449;28;20056;-63
2021/07/29 06:57:05;;;;;;;13.15;11.70;;;30.20;65.40;;;;;;5037701;28;20468;-61
2021/07/29 06:59:30;;;;;;;13.10;11.70;;;30.20;65.10;;;;;;5053649;28;20052;-63
2021/07/29 07:01:56;;;;;;;12.93;11.25;;;30.20;64.90;;;;;;5071883;28;20060;-63
2021/07/29 07:04:22;;;;;;;15.02;13.38;;;30.20;64.90;;;;;;5068853;28;20036;-63
2021/07/29 07:06:47;;;;;;;15.93;14.20;;;30.30;64.50;;;;;;5050832;28;20041;-64
2021/07/29 07:09:13;;;;;;;17.08;14.55;;;30.30;64.50;;;;;;5066976;28;20030;-65
2021/07/29 07:11:39;;;;;;;15.02;13.27;;;30.30;64.40;;;;;;5050812;28;20029;-64
2021/07/29 07:14:06;;;;;;;17.02;14.63;;;30.30;64.40;;;;;;5069270;28;20024;-63
2021/07/29 07:16:33;;;;;;;15.50;13.18;;;30.30;64.30;;;;;;5070422;28;20444;-63
2021/07/29 07:18:59;;;;;;;14.95;13.35;;;30.30;64.50;;;;;;5073365;28;20034;-65
2021/07/29 07:21:25;;;;;;;15.38;13.13;;;30.40;64.60;;;;;;5072496;28;20024;-65
2021/07/29 07:23:51;;;;;;;15.38;13.30;;;30.50;64.80;;;;;;5072674;28;20360;-65
2021/07/29 07:26:19;;;;;;;15.35;13.82;;;30.60;64.40;;;;;;5073342;28;20028;-64
2021/07/29 07:28:45;;;;;;;18.45;15.48;;;30.70;64.30;;;;;;5073188;28;20460;-63
2021/07/29 07:31:11;;;;;;;15.43;13.75;;;30.80;63.90;;;;;;5071312;28;20082;-63
2021/07/29 07:33:37;;;;;;;14.48;12.77;;;30.90;63.70;;;;;;5072089;28;20024;-63
2021/07/29 07:36:03;;;;;;;22.40;19.73;;;30.90;63.40;;;;;;5072301;28;20036;-62
2021/07/29 07:38:28;;;;;;;20.20;16.52;;;31.10;62.40;;;;;;5073668;28;20112;-63
2021/07/29 07:40:54;;;;;;;16.23;14.00;;;31.10;61.60;;;;;;5073373;28;20108;-63
2021/07/29 07:43:20;;;;;;;15.98;13.77;;;31.20;59.80;;;;;;5073064;28;20028;-63
2021/07/29 07:45:48;;;;;;;18.95;14.68;;;31.30;58.40;;;;;;5073144;28;20033;-63
2021/07/29 07:48:13;;;;;;;17.27;13.27;;;31.40;57.20;;;;;;5073214;28;20024;-63
2021/07/29 07:50:40;;;;;;;17.08;14.55;;;31.40;58.00;;;;;;5073170;28;20024;-64
2021/07/29 07:53:06;;;;;;;20.63;14.57;;;31.30;58.20;;;;;;5073124;28;20147;-64
2021/07/29 07:55:34;;;;;;;18.80;16.25;;;31.20;58.30;;;;;;5073160;28;20036;-63
2021/07/29 07:57:59;;;;;;;17.35;14.77;;;31.40;57.80;;;;;;5073221;28;20032;-63
2021/07/29 08:00:25;;;;;;;17.65;15.40;;;31.30;58.30;;;;;;5073273;28;20037;-62
2021/07/29 08:02:51;;;;;;;17.40;14.73;;;31.40;58.20;;;;;;5072911;28;20026;-63
2021/07/29 08:05:16;;;;;;;17.77;14.75;;;31.50;57.80;;;;;;5073068;28;20037;-63
2021/07/29 08:07:42;;;;;;;17.80;15.00;;;31.70;57.40;;;;;;5073037;28;20021;-64
2021/07/29 08:10:08;;;;;;;16.25;13.40;;;31.90;56.40;;;;;;5054938;28;20467;-63
2021/07/29 08:12:34;;;;;;;19.58;15.20;;;32.00;55.90;;;;;;5054593;28;20471;-63
2021/07/29 08:15:00;;;;;;;18.00;15.50;;;32.10;55.40;;;;;;5072762;28;20024;-62
2021/07/29 08:17:26;;;;;;;17.88;13.80;;;32.20;55.40;;;;;;5072758;28;20039;-63
2021/07/29 08:19:52;;;;;;;19.27;14.00;;;32.20;55.10;;;;;;5054556;28;20020;-63
2021/07/29 08:22:17;;;;;;;17.25;13.75;;;32.20;55.00;;;;;;5072647;28;20024;-63
2021/07/29 08:24:43;;;;;;;16.42;12.75;;;32.40;55.30;;;;;;5072565;28;20024;-62
2021/07/29 08:27:08;;;;;;;17.67;12.73;;;32.80;54.40;;;;;;5072637;28;20025;-63
2021/07/29 08:29:35;;;;;;;15.68;11.57;;;33.00;54.20;;;;;;5072156;28;20107;-64
2021/07/29 08:32:00;;;;;;;16.88;11.75;;;33.20;54.40;;;;;;5072276;28;20035;-63
2021/07/29 08:34:26;;;;;;;14.48;12.13;;;33.50;53.90;;;;;;5072419;28;20020;-62
2021/07/29 08:36:52;;;;;;;14.75;11.30;;;33.70;53.10;;;;;;5071714;28;20028;-64
2021/07/29 08:39:18;;;;;;;17.42;10.75;;;33.90;51.90;;;;;;5072313;28;20433;-63
2021/07/29 08:41:46;;;;;;;15.85;10.52;;;33.90;51.10;;;;;;5072085;28;20036;-63
2021/07/29 08:44:13;;;;;;;13.38;9.43;;;34.00;50.30;;;;;;5072000;28;20052;-63
2021/07/29 08:46:44;;;;;;;11.70;8.30;;;33.90;49.80;;;;;;5071991;28;20450;-63
2021/07/29 08:49:10;;;;;;;16.10;9.63;;;34.10;49.00;;;;;;5072072;28;20017;-62
2021/07/29 08:51:36;;;;;;;14.30;9.40;;;34.50;47.80;;;;;;5071773;28;20422;-64
2021/07/29 08:54:08;;;;;;;12.98;9.35;;;34.60;47.90;;;;;;5071714;28;20078;-63
2021/07/29 08:56:34;;;;;;;12.80;8.55;;;35.00;47.70;;;;;;5071920;28;20028;-64
2021/07/29 08:59:00;;;;;;;15.40;8.38;;;35.20;45.80;;;;;;5072082;28;20094;-63
2021/07/29 09:01:50;;;;;;;12.25;8.18;;;35.20;45.60;;;;;;5071571;28;20524;-63
2021/07/29 09:04:16;;;;;;;13.48;7.65;;;35.30;44.40;;;;;;5071873;28;20106;-64
2021/07/29 09:06:57;;;;;;;11.43;7.30;;;35.10;45.50;;;;;;5071838;28;20059;-64
2021/07/29 09:09:52;;;;;;;15.90;7.70;;;34.90;44.70;;;;;;5071570;28;20070;-63
2021/07/29 09:12:24;;;;;;;13.20;8.63;;;34.90;45.10;;;;;;5072428;28;20028;-62
2021/07/29 09:14:51;;;;;;;10.57;7.70;;;35.30;44.50;;;;;;5071261;28;20024;-64
2021/07/29 09:17:18;;;;;;;12.98;8.45;;;35.20;45.60;;;;;;5071582;28;20029;-65
2021/07/29 09:19:45;;;;;;;12.27;7.85;;;35.60;44.60;;;;;;5071697;28;20414;-63
2021/07/29 09:22:20;;;;;;;12.35;8.00;;;35.70;45.00;;;;;;5070049;28;20353;-64
2021/07/29 09:25:02;;;;;;;12.02;7.68;;;35.90;44.60;;;;;;5068981;28;20086;-64
2021/07/29 09:27:44;;;;;;;9.98;7.47;;;36.20;43.50;;;;;;5057190;28;20111;-63
2021/07/29 09:30:32;;;;;;;10.50;8.13;;;36.60;43.80;;;;;;5068844;28;20119;-65
2021/07/29 09:33:04;;;;;;;11.55;8.18;;;36.90;42.90;;;;;;5069572;28;20067;-64
2021/07/29 09:35:40;;;;;;;10.32;6.88;;;37.40;42.70;;;;;;5063974;28;20360;-65
2021/07/29 09:38:26;;;;;;;10.65;6.50;;;37.70;41.60;;;;;;5068348;28;20091;-63
2021/07/29 09:40:55;;;;;;;10.27;6.50;;;37.90;40.50;;;;;;5071324;28;20374;-63
2021/07/29 09:43:29;;;;;;;11.65;6.43;;;38.10;39.00;;;;;;5071330;28;20491;-64
2021/07/29 09:45:55;;;;;;;9.55;5.95;;;37.70;39.80;;;;;;5071500;28;20029;-63
2021/07/29 09:48:22;;;;;;;9.00;5.90;;;37.50;40.20;;;;;;5071392;28;20024;-64
2021/07/29 09:50:49;;;;;;;10.35;6.63;;;37.40;40.40;;;;;;5071490;28;20135;-63
2021/07/29 09:53:15;;;;;;;14.70;7.35;;;37.30;40.50;;;;;;5071344;28;20036;-64
2021/07/29 09:55:41;;;;;;;11.77;7.43;;;37.20;40.70;;;;;;5071298;28;20021;-62
2021/07/29 09:58:07;;;;;;;12.13;7.50;;;36.90;41.30;;;;;;5071558;28;20038;-63
2021/07/29 10:00:35;;;;;;;8.95;6.80;;;36.70;41.60;;;;;;5071372;28;20515;-64
2021/07/29 10:03:04;;;;;;;11.27;7.43;;;36.40;42.40;;;;;;5071294;28;20020;-64
2021/07/29 10:05:51;;;;;;;12.02;6.82;;;36.50;42.80;;;;;;5071146;28;20051;-63
2021/07/29 10:08:33;;;;;;;10.50;5.97;;;36.30;42.60;;;;;;5070275;28;20498;-63
2021/07/29 10:11:00;;;;;;;10.85;7.35;;;36.40;42.40;;;;;;5071185;28;20023;-63
2021/07/29 10:13:39;;;;;;;11.15;7.25;;;36.40;42.70;;;;;;5071014;28;20103;-63
2021/07/29 10:16:07;;;;;;;10.88;6.95;;;36.50;43.10;;;;;;5071009;28;20052;-65
2021/07/29 10:18:53;;;;;;;10.43;6.65;;;36.70;43.00;;;;;;5071046;28;20029;-64
2021/07/29 10:21:26;;;;;;;10.43;6.85;;;36.80;42.50;;;;;;5057318;28;20040;-64
2021/07/29 10:24:03;;;;;;;12.13;6.97;;;36.50;42.90;;;;;;5070705;28;20031;-63
2021/07/29 10:26:31;;;;;;;12.68;7.38;;;36.30;43.20;;;;;;5081784;28;20470;-64
2021/07/29 10:29:18;;;;;;;11.95;6.80;;;36.50;43.00;;;;;;5091507;28;20035;-63
2021/07/29 10:31:52;;;;;;;10.20;6.50;;;36.40;42.50;;;;;;5075574;28;20472;-64
2021/07/29 10:34:33;;;;;;;11.70;5.78;;;36.50;42.70;;;;;;5070968;28;20025;-64
2021/07/29 10:37:00;;;;;;;10.23;5.80;;;36.80;40.80;;;;;;5071153;28;20132;-64
2021/07/29 10:39:27;;;;;;;11.10;5.18;;;37.40;40.70;;;;;;5071205;28;20032;-64
2021/07/29 10:41:58;;;;;;;8.98;5.22;;;37.60;39.20;;;;;;5070962;28;20024;-64
2021/07/29 10:44:35;;;;;;;10.77;4.70;;;37.60;38.40;;;;;;5069819;28;20032;-64
2021/07/29 10:47:07;;;;;;;9.27;4.60;;;37.70;38.00;;;;;;5070655;28;20032;-64
2021/07/29 10:49:45;;;;;;;8.65;4.50;;;37.70;38.00;;;;;;5052795;28;20106;-64
2021/07/29 10:52:14;;;;;;;9.20;4.65;;;38.20;37.60;;;;;;5071329;28;20126;-65
2021/07/29 10:54:41;;;;;;;7.97;4.05;;;38.20;37.90;;;;;;5074611;28;20024;-63
2021/07/29 10:57:08;;;;;;;7.72;4.25;;;38.40;36.60;;;;;;5074797;28;20495;-64
2021/07/29 10:59:35;;;;;;;8.07;3.88;;;38.40;36.80;;;;;;5074590;28;20107;-64
2021/07/29 11:02:05;;;;;;;8.85;4.57;;;38.50;37.10;;;;;;5073355;28;20025;-63
2021/07/29 11:04:32;;;;;;;7.68;4.13;;;38.70;37.40;;;;;;5074407;28;20564;-62
2021/07/29 11:07:05;;;;;;;9.00;3.92;;;39.00;36.70;;;;;;5074347;28;20415;-63
2021/07/29 11:09:32;;;;;;;8.27;3.65;;;38.90;36.70;;;;;;5074184;28;20032;-62
2021/07/29 11:11:59;;;;;;;9.32;3.75;;;38.90;36.70;;;;;;5074235;28;20031;-63
2021/07/29 11:14:31;;;;;;;8.57;3.55;;;39.20;35.80;;;;;;5074556;28;20034;-64
2021/07/29 11:16:59;;;;;;;7.15;3.13;;;38.90;35.20;;;;;;5074760;28;20036;-63
2021/07/29 11:19:25;;;;;;;7.82;3.45;;;38.30;35.20;;;;;;5073412;28;20035;-63
2021/07/29 11:22:07;;;;;;;8.13;3.30;;;38.10;35.40;;;;;;5074070;28;20395;-63
2021/07/29 11:24:36;;;;;;;7.72;3.20;;;38.10;35.80;;;;;;5060789;28;20040;-70
2021/07/29 11:27:06;;;;;;;8.05;3.70;;;38.70;35.90;;;;;;5073014;28;20554;-70
2021/07/29 11:29:32;;;;;;;6.93;3.20;;;39.20;35.10;;;;;;5073028;28;20467;-62
2021/07/29 11:31:58;;;;;;;9.38;3.72;;;39.20;35.60;;;;;;5073695;28;20036;-64
2021/07/29 11:34:42;;;;;;;6.28;3.35;;;39.50;35.40;;;;;;5073891;28;20025;-64
2021/07/29 11:37:08;;;;;;;8.05;3.25;;;39.60;34.20;;;;;;5073424;28;20487;-63
2021/07/29 11:39:42;;;;;;;8.77;3.22;;;40.00;35.00;;;;;;5073431;28;20083;-63
2021/07/29 11:42:07;;;;;;;8.43;3.50;;;40.10;34.90;;;;;;5073388;28;20484;-64
2021/07/29 11:44:38;;;;;;;7.60;3.10;;;40.30;35.20;;;;;;5073604;28;20043;-64
2021/07/29 11:47:04;;;;;;;8.00;3.10;;;40.50;34.60;;;;;;5073147;28;20020;-64
2021/07/29 11:49:30;;;;;;;6.28;3.15;;;40.60;34.50;;;;;;5072893;28;20025;-63
2021/07/29 11:52:09;;;;;;;6.03;3.03;;;41.00;34.60;;;;;;5073100;28;20023;-65
2021/07/29 11:54:36;;;;;;;6.97;2.78;;;40.90;34.00;;;;;;5073396;28;20029;-63
2021/07/29 11:57:02;;;;;;;7.35;3.13;;;41.10;34.00;;;;;;5072533;28;20028;-64
2021/07/29 11:59:35;;;;;;;8.18;3.10;;;41.20;33.90;;;;;;5055344;28;20028;-64
2021/07/29 12:02:02;;;;;;;6.88;3.10;;;41.50;33.20;;;;;;5073481;28;20174;-63
2021/07/29 12:04:30;;;;;;;6.13;3.10;;;41.80;33.70;;;;;;5072611;28;20033;-64
2021/07/29 12:06:55;;;;;;;8.38;3.30;;;41.60;33.80;;;;;;5073265;28;20060;-65
2021/07/29 12:09:22;;;;;;;7.22;3.20;;;41.50;34.00;;;;;;5073313;28;20526;-64
2021/07/29 12:11:51;;;;;;;7.38;3.25;;;41.50;33.70;;;;;;5072853;28;20082;-64
2021/07/29 12:14:17;;;;;;;7.47;3.60;;;41.40;34.40;;;;;;5073219;28;20017;-64
2021/07/29 12:16:47;;;;;;;6.90;3.25;;;41.50;33.70;;;;;;5072972;28;20468;-64
2021/07/29 12:19:13;;;;;;;8.18;3.92;;;41.20;34.40;;;;;;5072854;28;20087;-63
2021/07/29 12:21:39;;;;;;;7.50;3.45;;;41.30;34.40;;;;;;5072926;28;20037;-64
2021/07/29 12:24:05;;;;;;;8.18;3.45;;;41.50;33.90;;;;;;5072972;28;20031;-63
2021/07/29 12:26:30;;;;;;;7.80;3.40;;;41.40;34.20;;;;;;5072597;28;20117;-64
2021/07/29 12:28:56;;;;;;;7.10;3.20;;;41.20;34.40;;;;;;5072645;28;20024;-63
2021/07/29 12:31:27;;;;;;;7.38;3.42;;;41.40;34.70;;;;;;5072427;28;20024;-63
2021/07/29 12:33:54;;;;;;;8.57;3.60;;;41.80;34.10;;;;;;5072749;28;20017;-63
2021/07/29 12:36:21;;;;;;;6.13;3.47;;;42.10;34.00;;;;;;5073118;28;20024;-63